sensor_id;sensor_type;location;lat;lon;timestamp;temperature;humidity
3850;DHT22;1940;51.052;13.678;2024-01-15T00:01:26;2.40;81.00
3850;DHT22;1940;51.052;13.678;2024-01-15T00:03:52;2.40;81.00
3850;DHT22;1940;51.052;13.678;2024-01-15T00:06:17;2.40;81.10
3850;DHT22;1940;51.052;13.678;2024-01-15T00:08:42;2.40;81.10
3850;DHT22;1940;51.052;13.678;2024-01-15T00:11:08;2.40;81.20
3850;DHT22;1940;51.052;13.678;2024-01-15T00:13:33;2.30;81.30
3850;DHT22;1940;51.052;13.678;2024-01-15T00:15:59;2.40;81.50
3850;DHT22;1940;51.052;13.678;2024-01-15T00:18:24;2.40;81.50
3850;DHT22;1940;51.052;13.678;2024-01-15T00:20:50;2.30;81.60
3850;DHT22;1940;51.052;13.678;2024-01-15T00:23:15;2.40;81.50
3850;DHT22;1940;51.052;13.678;2024-01-15T00:25:41;2.40;81.50
3850;DHT22;1940;51.052;13.678;2024-01-15T00:28:06;2.40;81.30
3850;DHT22;1940;51.052;13.678;2024-01-15T00:30:32;2.30;81.50
3850;DHT22;1940;51.052;13.678;2024-01-15T00:32:57;2.30;81.70
3850;DHT22;1940;51.052;13.678;2024-01-15T00:35:23;2.30;81.70
3850;DHT22;1940;51.052;13.678;2024-01-15T00:37:48;2.30;81.60
3850;DHT22;1940;51.052;13.678;2024-01-15T00:40:14;2.30;81.80
3850;DHT22;1940;51.052;13.678;2024-01-15T00:42:39;2.30;81.80
3850;DHT22;1940;51.052;13.678;2024-01-15T00:45:05;2.30;81.70
3850;DHT22;1940;51.052;13.678;2024-01-15T00:47:33;2.30;81.60
3850;DHT22;1940;51.052;13.678;2024-01-15T00:49:58;2.20;82.00
3850;DHT22;1940;51.052;13.678;2024-01-15T00:52:24;2.20;82.10
3850;DHT22;1940;51.052;13.678;2024-01-15T00:54:49;2.30;81.70
3850;DHT22;1940;51.052;13.678;2024-01-15T00:57:15;2.30;81.60
3850;DHT22;1940;51.052;13.678;2024-01-15T00:59:40;2.30;81.20
3850;DHT22;1940;51.052;13.678;2024-01-15T01:02:06;2.20;81.10
3850;DHT22;1940;51.052;13.678;2024-01-15T01:04:31;2.20;81.30
3850;DHT22;1940;51.052;13.678;2024-01-15T01:06:57;2.20;81.30
3850;DHT22;1940;51.052;13.678;2024-01-15T01:09:22;2.20;81.30
3850;DHT22;1940;51.052;13.678;2024-01-15T01:11:48;2.20;81.40
3850;DHT22;1940;51.052;13.678;2024-01-15T01:14:13;2.20;81.30
3850;DHT22;1940;51.052;13.678;2024-01-15T01:16:39;2.20;81.30
3850;DHT22;1940;51.052;13.678;2024-01-15T01:19:07;2.20;81.30
3850;DHT22;1940;51.052;13.678;2024-01-15T01:21:33;2.20;81.10
3850;DHT22;1940;51.052;13.678;2024-01-15T01:23:59;2.10;81.10
3850;DHT22;1940;51.052;13.678;2024-01-15T01:26:24;2.00;81.60
3850;DHT22;1940;51.052;13.678;2024-01-15T01:28:50;2.10;81.50
3850;DHT22;1940;51.052;13.678;2024-01-15T01:31:15;2.00;81.60
3850;DHT22;1940;51.052;13.678;2024-01-15T01:33:41;2.00;81.70
3850;DHT22;1940;51.052;13.678;2024-01-15T01:36:08;2.00;81.90
3850;DHT22;1940;51.052;13.678;2024-01-15T01:38:34;2.00;81.60
3850;DHT22;1940;51.052;13.678;2024-01-15T01:40:59;2.00;81.60
3850;DHT22;1940;51.052;13.678;2024-01-15T01:43:25;1.90;81.70
3850;DHT22;1940;51.052;13.678;2024-01-15T01:45:50;1.90;81.70
3850;DHT22;1940;51.052;13.678;2024-01-15T01:48:16;1.90;81.90
3850;DHT22;1940;51.052;13.678;2024-01-15T01:50:41;1.90;81.90
3850;DHT22;1940;51.052;13.678;2024-01-15T01:53:07;1.90;82.00
3850;DHT22;1940;51.052;13.678;2024-01-15T01:55:33;1.80;81.80
3850;DHT22;1940;51.052;13.678;2024-01-15T01:58:00;1.80;81.90
3850;DHT22;1940;51.052;13.678;2024-01-15T02:00:27;1.90;81.90
3850;DHT22;1940;51.052;13.678;2024-01-15T02:02:52;1.90;81.70
3850;DHT22;1940;51.052;13.678;2024-01-15T02:05:19;2.00;81.50
3850;DHT22;1940;51.052;13.678;2024-01-15T02:07:45;2.00;81.10
3850;DHT22;1940;51.052;13.678;2024-01-15T02:10:11;2.00;81.00
3850;DHT22;1940;51.052;13.678;2024-01-15T02:12:36;2.00;80.90
3850;DHT22;1940;51.052;13.678;2024-01-15T02:15:02;1.90;81.10
3850;DHT22;1940;51.052;13.678;2024-01-15T02:17:28;1.90;81.00
3850;DHT22;1940;51.052;13.678;2024-01-15T02:19:53;1.90;81.10
3850;DHT22;1940;51.052;13.678;2024-01-15T02:22:19;1.90;80.90
3850;DHT22;1940;51.052;13.678;2024-01-15T02:24:44;1.90;80.90
3850;DHT22;1940;51.052;13.678;2024-01-15T02:27:10;1.90;81.00
3850;DHT22;1940;51.052;13.678;2024-01-15T02:29:35;1.90;80.90
3850;DHT22;1940;51.052;13.678;2024-01-15T02:32:05;1.90;80.90
3850;DHT22;1940;51.052;13.678;2024-01-15T02:34:34;1.90;80.70
3850;DHT22;1940;51.052;13.678;2024-01-15T02:36:59;1.90;80.70
3850;DHT22;1940;51.052;13.678;2024-01-15T02:39:25;1.90;80.90
3850;DHT22;1940;51.052;13.678;2024-01-15T02:41:51;1.90;80.90
3850;DHT22;1940;51.052;13.678;2024-01-15T02:44:16;1.80;81.10
3850;DHT22;1940;51.052;13.678;2024-01-15T02:46:42;1.80;81.10
3850;DHT22;1940;51.052;13.678;2024-01-15T02:49:07;1.80;80.80
3850;DHT22;1940;51.052;13.678;2024-01-15T02:51:33;1.80;80.90
3850;DHT22;1940;51.052;13.678;2024-01-15T02:53:58;1.80;80.80
3850;DHT22;1940;51.052;13.678;2024-01-15T02:56:24;1.80;80.80
3850;DHT22;1940;51.052;13.678;2024-01-15T02:58:49;1.80;80.80
3850;DHT22;1940;51.052;13.678;2024-01-15T03:01:15;1.80;80.90
3850;DHT22;1940;51.052;13.678;2024-01-15T03:03:43;1.70;80.80
3850;DHT22;1940;51.052;13.678;2024-01-15T03:06:08;1.70;81.00
3850;DHT22;1940;51.052;13.678;2024-01-15T03:08:35;1.70;81.00
3850;DHT22;1940;51.052;13.678;2024-01-15T03:11:00;1.80;80.80
3850;DHT22;1940;51.052;13.678;2024-01-15T03:13:26;1.70;81.00
3850;DHT22;1940;51.052;13.678;2024-01-15T03:15:51;1.60;81.20
3850;DHT22;1940;51.052;13.678;2024-01-15T03:18:17;1.70;81.00
3850;DHT22;1940;51.052;13.678;2024-01-15T03:20:42;1.60;80.70
3850;DHT22;1940;51.052;13.678;2024-01-15T03:23:08;1.60;80.80
3850;DHT22;1940;51.052;13.678;2024-01-15T03:25:33;1.60;80.70
3850;DHT22;1940;51.052;13.678;2024-01-15T03:27:59;1.60;80.80
3850;DHT22;1940;51.052;13.678;2024-01-15T03:30:24;1.60;80.60
3850;DHT22;1940;51.052;13.678;2024-01-15T03:32:49;1.60;80.40
3850;DHT22;1940;51.052;13.678;2024-01-15T03:35:15;1.60;80.40
3850;DHT22;1940;51.052;13.678;2024-01-15T03:37:40;1.60;80.50
3850;DHT22;1940;51.052;13.678;2024-01-15T03:40:07;1.50;80.50
3850;DHT22;1940;51.052;13.678;2024-01-15T03:42:32;1.50;80.50
3850;DHT22;1940;51.052;13.678;2024-01-15T03:44:58;1.50;80.40
3850;DHT22;1940;51.052;13.678;2024-01-15T03:47:26;1.50;80.70
3850;DHT22;1940;51.052;13.678;2024-01-15T03:49:51;1.40;80.90
3850;DHT22;1940;51.052;13.678;2024-01-15T03:52:17;1.40;80.90
3850;DHT22;1940;51.052;13.678;2024-01-15T03:54:42;1.40;81.40
3850;DHT22;1940;51.052;13.678;2024-01-15T03:57:08;1.40;81.40
3850;DHT22;1940;51.052;13.678;2024-01-15T03:59:33;1.40;81.80
3850;DHT22;1940;51.052;13.678;2024-01-15T04:01:59;1.30;82.30
3850;DHT22;1940;51.052;13.678;2024-01-15T04:04:24;1.30;82.60
3850;DHT22;1940;51.052;13.678;2024-01-15T04:06:50;1.30;82.60
3850;DHT22;1940;51.052;13.678;2024-01-15T04:09:15;1.30;82.60
3850;DHT22;1940;51.052;13.678;2024-01-15T04:11:41;1.30;82.40
3850;DHT22;1940;51.052;13.678;2024-01-15T04:14:06;1.30;82.40
3850;DHT22;1940;51.052;13.678;2024-01-15T04:16:32;1.30;82.30
3850;DHT22;1940;51.052;13.678;2024-01-15T04:18:57;1.20;82.40
3850;DHT22;1940;51.052;13.678;2024-01-15T04:21:23;1.20;82.90
3850;DHT22;1940;51.052;13.678;2024-01-15T04:23:49;1.20;82.80
3850;DHT22;1940;51.052;13.678;2024-01-15T04:26:14;1.20;82.90
3850;DHT22;1940;51.052;13.678;2024-01-15T04:28:40;1.20;82.30
3850;DHT22;1940;51.052;13.678;2024-01-15T04:31:05;1.20;82.20
3850;DHT22;1940;51.052;13.678;2024-01-15T04:33:31;1.20;81.90
3850;DHT22;1940;51.052;13.678;2024-01-15T04:35:56;1.20;81.60
3850;DHT22;1940;51.052;13.678;2024-01-15T04:38:22;1.20;81.50
3850;DHT22;1940;51.052;13.678;2024-01-15T04:40:47;1.20;81.40
3850;DHT22;1940;51.052;13.678;2024-01-15T04:43:13;1.20;81.40
3850;DHT22;1940;51.052;13.678;2024-01-15T04:45:38;1.10;81.20
3850;DHT22;1940;51.052;13.678;2024-01-15T04:48:04;1.10;81.50
3850;DHT22;1940;51.052;13.678;2024-01-15T04:50:30;1.10;81.40
3850;DHT22;1940;51.052;13.678;2024-01-15T04:52:55;1.00;81.50
3850;DHT22;1940;51.052;13.678;2024-01-15T04:55:21;1.00;81.40
3850;DHT22;1940;51.052;13.678;2024-01-15T04:57:46;1.00;81.60
3850;DHT22;1940;51.052;13.678;2024-01-15T05:00:12;1.00;81.60
3850;DHT22;1940;51.052;13.678;2024-01-15T05:02:38;0.90;81.50
3850;DHT22;1940;51.052;13.678;2024-01-15T05:05:04;0.90;81.40
3850;DHT22;1940;51.052;13.678;2024-01-15T05:07:29;0.80;81.40
3850;DHT22;1940;51.052;13.678;2024-01-15T05:09:55;0.80;81.50
3850;DHT22;1940;51.052;13.678;2024-01-15T05:12:20;0.80;81.60
3850;DHT22;1940;51.052;13.678;2024-01-15T05:14:45;0.80;81.70
3850;DHT22;1940;51.052;13.678;2024-01-15T05:17:11;0.80;82.00
3850;DHT22;1940;51.052;13.678;2024-01-15T05:19:36;0.80;82.20
3850;DHT22;1940;51.052;13.678;2024-01-15T05:22:02;0.80;82.20
3850;DHT22;1940;51.052;13.678;2024-01-15T05:24:27;0.80;82.30
3850;DHT22;1940;51.052;13.678;2024-01-15T05:26:53;0.80;82.10
3850;DHT22;1940;51.052;13.678;2024-01-15T05:29:18;0.80;82.10
3850;DHT22;1940;51.052;13.678;2024-01-15T05:31:44;0.80;82.10
3850;DHT22;1940;51.052;13.678;2024-01-15T05:34:10;0.80;81.90
3850;DHT22;1940;51.052;13.678;2024-01-15T05:36:35;0.80;81.70
3850;DHT22;1940;51.052;13.678;2024-01-15T05:39:00;0.80;81.70
3850;DHT22;1940;51.052;13.678;2024-01-15T05:41:26;0.80;81.40
3850;DHT22;1940;51.052;13.678;2024-01-15T05:43:52;0.80;81.40
3850;DHT22;1940;51.052;13.678;2024-01-15T05:46:17;0.80;81.30
3850;DHT22;1940;51.052;13.678;2024-01-15T05:48:43;0.80;81.20
3850;DHT22;1940;51.052;13.678;2024-01-15T05:51:08;0.70;81.40
3850;DHT22;1940;51.052;13.678;2024-01-15T05:53:33;0.80;81.40
3850;DHT22;1940;51.052;13.678;2024-01-15T05:55:59;0.80;81.30
3850;DHT22;1940;51.052;13.678;2024-01-15T05:58:26;0.80;81.20
3850;DHT22;1940;51.052;13.678;2024-01-15T06:00:51;0.80;80.90
3850;DHT22;1940;51.052;13.678;2024-01-15T06:03:17;0.80;80.90
3850;DHT22;1940;51.052;13.678;2024-01-15T06:05:42;0.80;80.50
3850;DHT22;1940;51.052;13.678;2024-01-15T06:08:08;0.80;80.50
3850;DHT22;1940;51.052;13.678;2024-01-15T06:10:33;0.90;80.50
3850;DHT22;1940;51.052;13.678;2024-01-15T06:13:00;1.00;80.00
3850;DHT22;1940;51.052;13.678;2024-01-15T06:15:26;1.00;79.80
3850;DHT22;1940;51.052;13.678;2024-01-15T06:17:51;1.00;79.80
3850;DHT22;1940;51.052;13.678;2024-01-15T06:20:17;1.00;79.50
3850;DHT22;1940;51.052;13.678;2024-01-15T06:22:42;1.00;79.30
3850;DHT22;1940;51.052;13.678;2024-01-15T06:25:08;1.10;79.10
3850;DHT22;1940;51.052;13.678;2024-01-15T06:27:34;1.10;79.10
3850;DHT22;1940;51.052;13.678;2024-01-15T06:29:59;1.00;79.00
3850;DHT22;1940;51.052;13.678;2024-01-15T06:32:25;1.00;79.10
3850;DHT22;1940;51.052;13.678;2024-01-15T06:34:50;1.00;79.00
3850;DHT22;1940;51.052;13.678;2024-01-15T06:37:16;1.00;79.20
3850;DHT22;1940;51.052;13.678;2024-01-15T06:39:41;1.10;78.90
3850;DHT22;1940;51.052;13.678;2024-01-15T06:42:07;1.10;79.00
3850;DHT22;1940;51.052;13.678;2024-01-15T06:44:32;1.00;79.00
3850;DHT22;1940;51.052;13.678;2024-01-15T06:46:58;1.10;79.10
3850;DHT22;1940;51.052;13.678;2024-01-15T06:49:28;1.10;79.00
3850;DHT22;1940;51.052;13.678;2024-01-15T06:51:53;1.10;78.90
3850;DHT22;1940;51.052;13.678;2024-01-15T06:54:19;1.10;78.70
3850;DHT22;1940;51.052;13.678;2024-01-15T06:56:44;1.10;78.70
3850;DHT22;1940;51.052;13.678;2024-01-15T06:59:10;1.10;78.70
3850;DHT22;1940;51.052;13.678;2024-01-15T07:01:35;1.10;78.60
3850;DHT22;1940;51.052;13.678;2024-01-15T07:04:01;1.10;78.30
3850;DHT22;1940;51.052;13.678;2024-01-15T07:06:26;1.00;78.50
3850;DHT22;1940;51.052;13.678;2024-01-15T07:08:52;1.00;78.70
3850;DHT22;1940;51.052;13.678;2024-01-15T07:11:17;1.00;78.60
3850;DHT22;1940;51.052;13.678;2024-01-15T07:13:43;1.00;78.30
3850;DHT22;1940;51.052;13.678;2024-01-15T07:16:08;1.00;78.30
3850;DHT22;1940;51.052;13.678;2024-01-15T07:18:34;1.00;78.20
3850;DHT22;1940;51.052;13.678;2024-01-15T07:21:00;1.10;78.10
3850;DHT22;1940;51.052;13.678;2024-01-15T07:23:26;1.10;77.80
3850;DHT22;1940;51.052;13.678;2024-01-15T07:25:52;1.10;77.80
3850;DHT22;1940;51.052;13.678;2024-01-15T07:28:19;1.10;77.80
3850;DHT22;1940;51.052;13.678;2024-01-15T07:30:44;1.10;77.80
3850;DHT22;1940;51.052;13.678;2024-01-15T07:33:10;1.10;77.80
3850;DHT22;1940;51.052;13.678;2024-01-15T07:35:36;1.00;78.10
3850;DHT22;1940;51.052;13.678;2024-01-15T07:38:01;1.00;78.30
3850;DHT22;1940;51.052;13.678;2024-01-15T07:40:27;1.00;78.70
3850;DHT22;1940;51.052;13.678;2024-01-15T07:42:53;1.00;78.70
3850;DHT22;1940;51.052;13.678;2024-01-15T07:45:18;1.00;78.60
3850;DHT22;1940;51.052;13.678;2024-01-15T07:47:44;1.10;78.50
3850;DHT22;1940;51.052;13.678;2024-01-15T07:50:09;1.00;78.30
3850;DHT22;1940;51.052;13.678;2024-01-15T07:52:35;1.00;78.50
3850;DHT22;1940;51.052;13.678;2024-01-15T07:55:01;1.00;78.50
3850;DHT22;1940;51.052;13.678;2024-01-15T07:57:28;1.10;78.10
3850;DHT22;1940;51.052;13.678;2024-01-15T07:59:54;1.10;78.10
3850;DHT22;1940;51.052;13.678;2024-01-15T08:02:19;1.10;78.70
3850;DHT22;1940;51.052;13.678;2024-01-15T08:04:45;1.10;77.90
3850;DHT22;1940;51.052;13.678;2024-01-15T08:07:11;1.10;78.00
3850;DHT22;1940;51.052;13.678;2024-01-15T08:09:36;1.20;77.70
3850;DHT22;1940;51.052;13.678;2024-01-15T08:12:02;1.20;77.50
3850;DHT22;1940;51.052;13.678;2024-01-15T08:14:28;1.20;77.60
3850;DHT22;1940;51.052;13.678;2024-01-15T08:16:53;1.30;77.30
3850;DHT22;1940;51.052;13.678;2024-01-15T08:19:19;1.50;76.90
3850;DHT22;1940;51.052;13.678;2024-01-15T08:21:45;1.60;76.00
3850;DHT22;1940;51.052;13.678;2024-01-15T08:24:10;1.60;75.90
3850;DHT22;1940;51.052;13.678;2024-01-15T08:26:36;1.70;76.10
3850;DHT22;1940;51.052;13.678;2024-01-15T08:29:02;1.80;75.60
3850;DHT22;1940;51.052;13.678;2024-01-15T08:31:27;1.80;75.40
3850;DHT22;1940;51.052;13.678;2024-01-15T08:33:53;1.90;75.20
3850;DHT22;1940;51.052;13.678;2024-01-15T08:36:18;1.90;75.10
3850;DHT22;1940;51.052;13.678;2024-01-15T08:38:44;2.20;74.80
3850;DHT22;1940;51.052;13.678;2024-01-15T08:41:10;2.40;73.40
3850;DHT22;1940;51.052;13.678;2024-01-15T08:43:36;2.30;73.60
3850;DHT22;1940;51.052;13.678;2024-01-15T08:46:02;2.20;73.90
3850;DHT22;1940;51.052;13.678;2024-01-15T08:48:27;2.20;73.90
3850;DHT22;1940;51.052;13.678;2024-01-15T08:50:54;2.00;74.30
3850;DHT22;1940;51.052;13.678;2024-01-15T08:53:20;2.00;74.50
3850;DHT22;1940;51.052;13.678;2024-01-15T08:55:46;2.10;74.30
3850;DHT22;1940;51.052;13.678;2024-01-15T08:58:11;2.10;74.00
3850;DHT22;1940;51.052;13.678;2024-01-15T09:00:37;2.00;74.30
3850;DHT22;1940;51.052;13.678;2024-01-15T09:03:03;1.90;74.50
3850;DHT22;1940;51.052;13.678;2024-01-15T09:05:28;1.80;74.60
3850;DHT22;1940;51.052;13.678;2024-01-15T09:07:54;1.80;74.80
3850;DHT22;1940;51.052;13.678;2024-01-15T09:10:20;1.80;74.70
3850;DHT22;1940;51.052;13.678;2024-01-15T09:12:46;1.70;74.80
3850;DHT22;1940;51.052;13.678;2024-01-15T09:15:11;1.80;74.70
3850;DHT22;1940;51.052;13.678;2024-01-15T09:17:37;2.00;74.30
3850;DHT22;1940;51.052;13.678;2024-01-15T09:20:03;2.30;73.80
3850;DHT22;1940;51.052;13.678;2024-01-15T09:22:31;3.10;72.10
3850;DHT22;1940;51.052;13.678;2024-01-15T09:24:56;3.60;69.30
3850;DHT22;1940;51.052;13.678;2024-01-15T09:27:22;3.60;69.50
3850;DHT22;1940;51.052;13.678;2024-01-15T09:29:47;3.70;68.80
3850;DHT22;1940;51.052;13.678;2024-01-15T09:32:13;3.30;69.90
3850;DHT22;1940;51.052;13.678;2024-01-15T09:34:38;3.20;70.00
3850;DHT22;1940;51.052;13.678;2024-01-15T09:37:04;2.80;70.60
3850;DHT22;1940;51.052;13.678;2024-01-15T09:39:30;3.10;70.60
3850;DHT22;1940;51.052;13.678;2024-01-15T09:41:57;3.40;70.40
3850;DHT22;1940;51.052;13.678;2024-01-15T09:44:23;3.50;69.40
3850;DHT22;1940;51.052;13.678;2024-01-15T09:46:49;3.50;69.40
3850;DHT22;1940;51.052;13.678;2024-01-15T09:49:18;3.30;69.50
3850;DHT22;1940;51.052;13.678;2024-01-15T09:51:44;3.30;69.80
3850;DHT22;1940;51.052;13.678;2024-01-15T09:54:10;4.00;69.10
3850;DHT22;1940;51.052;13.678;2024-01-15T09:56:38;5.10;66.10
3850;DHT22;1940;51.052;13.678;2024-01-15T09:59:04;5.20;64.60
3850;DHT22;1940;51.052;13.678;2024-01-15T10:01:31;5.10;65.30
3850;DHT22;1940;51.052;13.678;2024-01-15T10:03:58;4.80;65.40
3850;DHT22;1940;51.052;13.678;2024-01-15T10:06:26;4.40;66.20
3850;DHT22;1940;51.052;13.678;2024-01-15T10:08:54;4.00;67.10
3850;DHT22;1940;51.052;13.678;2024-01-15T10:11:19;3.80;67.90
3850;DHT22;1940;51.052;13.678;2024-01-15T10:13:46;3.60;68.20
3850;DHT22;1940;51.052;13.678;2024-01-15T10:16:12;3.40;68.80
3850;DHT22;1940;51.052;13.678;2024-01-15T10:18:37;3.20;69.20
3850;DHT22;1940;51.052;13.678;2024-01-15T10:21:07;3.00;70.00
3850;DHT22;1940;51.052;13.678;2024-01-15T10:23:33;3.60;69.50
3850;DHT22;1940;51.052;13.678;2024-01-15T10:26:00;4.10;67.90
3850;DHT22;1940;51.052;13.678;2024-01-15T10:28:26;4.10;67.20
3850;DHT22;1940;51.052;13.678;2024-01-15T10:30:56;4.40;67.20
3850;DHT22;1940;51.052;13.678;2024-01-15T10:33:23;4.70;66.30
3850;DHT22;1940;51.052;13.678;2024-01-15T10:35:57;5.00;65.50
3850;DHT22;1940;51.052;13.678;2024-01-15T10:38:24;5.00;65.10
3850;DHT22;1940;51.052;13.678;2024-01-15T10:40:54;4.80;65.50
3850;DHT22;1940;51.052;13.678;2024-01-15T10:43:20;4.90;65.60
3850;DHT22;1940;51.052;13.678;2024-01-15T10:45:46;4.70;65.40
3850;DHT22;1940;51.052;13.678;2024-01-15T10:48:12;4.80;65.80
3850;DHT22;1940;51.052;13.678;2024-01-15T10:50:38;4.90;65.60
3850;DHT22;1940;51.052;13.678;2024-01-15T10:53:05;4.50;66.00
3850;DHT22;1940;51.052;13.678;2024-01-15T10:55:31;4.20;67.00
3850;DHT22;1940;51.052;13.678;2024-01-15T10:57:58;3.80;67.50
3850;DHT22;1940;51.052;13.678;2024-01-15T11:00:25;3.50;68.60
3850;DHT22;1940;51.052;13.678;2024-01-15T11:02:51;4.00;68.40
3850;DHT22;1940;51.052;13.678;2024-01-15T11:05:21;5.10;65.60
3850;DHT22;1940;51.052;13.678;2024-01-15T11:07:48;5.70;64.40
3850;DHT22;1940;51.052;13.678;2024-01-15T11:10:54;6.40;62.30
3850;DHT22;1940;51.052;13.678;2024-01-15T11:16:06;6.70;60.30
3850;DHT22;1940;51.052;13.678;2024-01-15T11:21:23;5.70;62.50
3850;DHT22;1940;51.052;13.678;2024-01-15T11:23:58;5.60;63.30
3850;DHT22;1940;51.052;13.678;2024-01-15T11:26:45;5.50;63.40
3850;DHT22;1940;51.052;13.678;2024-01-15T11:34:21;4.70;66.00
3850;DHT22;1940;51.052;13.678;2024-01-15T11:41:55;4.40;66.90
3850;DHT22;1940;51.052;13.678;2024-01-15T11:44:21;5.20;65.40
3850;DHT22;1940;51.052;13.678;2024-01-15T11:46:57;5.30;64.40
3850;DHT22;1940;51.052;13.678;2024-01-15T11:52:05;4.90;65.30
3850;DHT22;1940;51.052;13.678;2024-01-15T11:54:33;4.70;65.80
3850;DHT22;1940;51.052;13.678;2024-01-15T11:57:04;4.50;66.30
3850;DHT22;1940;51.052;13.678;2024-01-15T11:59:34;4.50;66.50
3850;DHT22;1940;51.052;13.678;2024-01-15T12:02:00;4.40;66.60
3850;DHT22;1940;51.052;13.678;2024-01-15T12:04:26;4.30;66.90
3850;DHT22;1940;51.052;13.678;2024-01-15T12:06:52;4.00;67.70
3850;DHT22;1940;51.052;13.678;2024-01-15T12:09:19;3.90;68.20
3850;DHT22;1940;51.052;13.678;2024-01-15T12:11:51;3.80;68.50
3850;DHT22;1940;51.052;13.678;2024-01-15T12:14:21;3.50;69.90
3850;DHT22;1940;51.052;13.678;2024-01-15T12:16:46;3.40;70.90
3850;DHT22;1940;51.052;13.678;2024-01-15T12:19:14;3.30;71.30
3850;DHT22;1940;51.052;13.678;2024-01-15T12:21:39;3.30;71.70
3850;DHT22;1940;51.052;13.678;2024-01-15T12:24:07;3.30;71.80
3850;DHT22;1940;51.052;13.678;2024-01-15T12:26:33;3.30;72.20
3850;DHT22;1940;51.052;13.678;2024-01-15T12:29:02;3.20;72.20
3850;DHT22;1940;51.052;13.678;2024-01-15T12:31:29;3.20;72.10
3850;DHT22;1940;51.052;13.678;2024-01-15T12:33:56;3.20;72.50
3850;DHT22;1940;51.052;13.678;2024-01-15T12:36:21;3.20;72.80
3850;DHT22;1940;51.052;13.678;2024-01-15T12:38:47;3.20;73.10
3850;DHT22;1940;51.052;13.678;2024-01-15T12:41:12;3.10;73.70
3850;DHT22;1940;51.052;13.678;2024-01-15T12:43:38;3.10;73.90
3850;DHT22;1940;51.052;13.678;2024-01-15T12:46:03;3.00;74.30
3850;DHT22;1940;51.052;13.678;2024-01-15T12:48:29;3.00;74.30
3850;DHT22;1940;51.052;13.678;2024-01-15T12:50:55;2.90;74.90
3850;DHT22;1940;51.052;13.678;2024-01-15T12:53:21;2.80;75.60
3850;DHT22;1940;51.052;13.678;2024-01-15T12:55:47;2.70;76.20
3850;DHT22;1940;51.052;13.678;2024-01-15T12:58:12;2.70;76.70
3850;DHT22;1940;51.052;13.678;2024-01-15T13:00:38;2.70;77.00
3850;DHT22;1940;51.052;13.678;2024-01-15T13:03:03;2.70;77.10
3850;DHT22;1940;51.052;13.678;2024-01-15T13:05:29;2.80;77.10
3850;DHT22;1940;51.052;13.678;2024-01-15T13:07:56;2.80;77.10
3850;DHT22;1940;51.052;13.678;2024-01-15T13:10:21;2.70;77.20
3850;DHT22;1940;51.052;13.678;2024-01-15T13:12:47;2.70;77.20
3850;DHT22;1940;51.052;13.678;2024-01-15T13:15:12;2.70;77.00
3850;DHT22;1940;51.052;13.678;2024-01-15T13:17:39;2.60;77.10
3850;DHT22;1940;51.052;13.678;2024-01-15T13:20:06;2.70;77.10
3850;DHT22;1940;51.052;13.678;2024-01-15T13:22:31;2.70;77.10
3850;DHT22;1940;51.052;13.678;2024-01-15T13:24:58;2.60;77.20
3850;DHT22;1940;51.052;13.678;2024-01-15T13:27:24;2.60;77.30
3850;DHT22;1940;51.052;13.678;2024-01-15T13:29:49;2.60;77.60
3850;DHT22;1940;51.052;13.678;2024-01-15T13:32:20;2.50;78.60
3850;DHT22;1940;51.052;13.678;2024-01-15T13:34:47;2.50;79.20
3850;DHT22;1940;51.052;13.678;2024-01-15T13:37:13;2.40;79.80
3850;DHT22;1940;51.052;13.678;2024-01-15T13:39:38;2.40;79.70
3850;DHT22;1940;51.052;13.678;2024-01-15T13:42:04;2.40;79.60
3850;DHT22;1940;51.052;13.678;2024-01-15T13:44:29;2.40;79.90
3850;DHT22;1940;51.052;13.678;2024-01-15T13:46:55;2.40;80.70
3850;DHT22;1940;51.052;13.678;2024-01-15T13:49:20;2.30;81.50
3850;DHT22;1940;51.052;13.678;2024-01-15T13:51:46;2.20;82.40
3850;DHT22;1940;51.052;13.678;2024-01-15T13:54:11;2.00;83.20
3850;DHT22;1940;51.052;13.678;2024-01-15T13:56:37;2.00;84.00
3850;DHT22;1940;51.052;13.678;2024-01-15T13:59:03;2.00;84.50
3850;DHT22;1940;51.052;13.678;2024-01-15T14:01:29;1.90;84.90
3850;DHT22;1940;51.052;13.678;2024-01-15T14:03:55;1.80;85.80
3850;DHT22;1940;51.052;13.678;2024-01-15T14:06:20;1.80;86.20
3850;DHT22;1940;51.052;13.678;2024-01-15T14:08:46;1.60;86.50
3850;DHT22;1940;51.052;13.678;2024-01-15T14:11:12;1.60;86.50
3850;DHT22;1940;51.052;13.678;2024-01-15T14:13:37;1.50;86.10
3850;DHT22;1940;51.052;13.678;2024-01-15T14:16:03;1.40;86.60
3850;DHT22;1940;51.052;13.678;2024-01-15T14:18:28;1.40;86.80
3850;DHT22;1940;51.052;13.678;2024-01-15T14:20:54;1.40;87.10
3850;DHT22;1940;51.052;13.678;2024-01-15T14:23:20;1.40;87.60
3850;DHT22;1940;51.052;13.678;2024-01-15T14:25:46;1.40;87.60
3850;DHT22;1940;51.052;13.678;2024-01-15T14:28:11;1.40;87.60
3850;DHT22;1940;51.052;13.678;2024-01-15T14:30:37;1.40;87.30
3850;DHT22;1940;51.052;13.678;2024-01-15T14:33:02;1.30;87.10
3850;DHT22;1940;51.052;13.678;2024-01-15T14:35:28;1.30;87.20
3850;DHT22;1940;51.052;13.678;2024-01-15T14:37:53;1.30;87.40
3850;DHT22;1940;51.052;13.678;2024-01-15T14:40:19;1.20;88.70
3850;DHT22;1940;51.052;13.678;2024-01-15T14:42:44;1.10;89.50
3850;DHT22;1940;51.052;13.678;2024-01-15T14:45:10;1.20;89.50
3850;DHT22;1940;51.052;13.678;2024-01-15T14:47:38;1.20;89.10
3850;DHT22;1940;51.052;13.678;2024-01-15T14:50:06;1.20;89.00
3850;DHT22;1940;51.052;13.678;2024-01-15T14:52:32;1.20;89.30
3850;DHT22;1940;51.052;13.678;2024-01-15T14:54:58;1.20;89.90
3850;DHT22;1940;51.052;13.678;2024-01-15T14:57:24;1.10;90.30
3850;DHT22;1940;51.052;13.678;2024-01-15T14:59:49;1.00;90.40
3850;DHT22;1940;51.052;13.678;2024-01-15T15:02:15;1.00;90.80
3850;DHT22;1940;51.052;13.678;2024-01-15T15:04:41;0.90;91.10
3850;DHT22;1940;51.052;13.678;2024-01-15T15:07:07;0.90;91.60
3850;DHT22;1940;51.052;13.678;2024-01-15T15:09:32;0.90;91.70
3850;DHT22;1940;51.052;13.678;2024-01-15T15:11:58;0.90;91.80
3850;DHT22;1940;51.052;13.678;2024-01-15T15:14:23;0.90;91.80
3850;DHT22;1940;51.052;13.678;2024-01-15T15:16:49;0.90;91.30
3850;DHT22;1940;51.052;13.678;2024-01-15T15:19:15;0.90;91.40
3850;DHT22;1940;51.052;13.678;2024-01-15T15:21:40;0.90;90.90
3850;DHT22;1940;51.052;13.678;2024-01-15T15:24:06;1.00;90.50
3850;DHT22;1940;51.052;13.678;2024-01-15T15:26:31;1.00;90.20
3850;DHT22;1940;51.052;13.678;2024-01-15T15:28:57;1.00;89.80
3850;DHT22;1940;51.052;13.678;2024-01-15T15:31:22;1.00;89.40
3850;DHT22;1940;51.052;13.678;2024-01-15T15:33:48;1.10;88.60
3850;DHT22;1940;51.052;13.678;2024-01-15T15:36:13;1.10;88.50
3850;DHT22;1940;51.052;13.678;2024-01-15T15:38:39;1.10;87.90
3850;DHT22;1940;51.052;13.678;2024-01-15T15:41:04;1.10;87.90
3850;DHT22;1940;51.052;13.678;2024-01-15T15:43:30;1.10;88.10
3850;DHT22;1940;51.052;13.678;2024-01-15T15:45:56;1.10;88.30
3850;DHT22;1940;51.052;13.678;2024-01-15T15:48:23;1.10;88.60
3850;DHT22;1940;51.052;13.678;2024-01-15T15:50:50;1.00;89.00
3850;DHT22;1940;51.052;13.678;2024-01-15T15:53:18;1.00;88.90
3850;DHT22;1940;51.052;13.678;2024-01-15T15:55:44;1.10;88.60
3850;DHT22;1940;51.052;13.678;2024-01-15T15:58:10;1.00;88.00
3850;DHT22;1940;51.052;13.678;2024-01-15T16:00:35;1.10;87.70
3850;DHT22;1940;51.052;13.678;2024-01-15T16:03:01;1.10;87.50
3850;DHT22;1940;51.052;13.678;2024-01-15T16:05:26;1.10;86.90
3850;DHT22;1940;51.052;13.678;2024-01-15T16:07:51;1.20;86.70
3850;DHT22;1940;51.052;13.678;2024-01-15T16:10:17;1.20;86.50
3850;DHT22;1940;51.052;13.678;2024-01-15T16:12:44;1.20;86.60